sensor_id;sensor_type;location;lat;lon;timestamp;pressure;altitude;pressure_sealevel;temperature;humidity
59315;BME280;46521;50.160;20.802;2023-02-10T00:08:35;101456.06;;;-3.97;63.96
59315;BME280;46521;50.160;20.802;2023-02-10T00:18:37;101433.52;;;-3.90;64.37
59315;BME280;46521;50.160;20.802;2023-02-10T00:28:38;101425.23;;;-4.06;64.13
59315;BME280;46521;50.160;20.802;2023-02-10T00:38:41;101438.22;;;-4.09;64.65
59315;BME280;46521;50.160;20.802;2023-02-10T00:48:44;101446.93;;;-4.13;64.49
59315;BME280;46521;50.160;20.802;2023-02-10T00:58:46;101445.25;;;-4.16;64.26
59315;BME280;46521;50.160;20.802;2023-02-10T01:08:48;101453.95;;;-4.22;64.47
59315;BME280;46521;50.160;20.802;2023-02-10T01:18:49;101440.28;;;-4.27;63.90
59315;BME280;46521;50.160;20.802;2023-02-10T01:28:51;101437.81;;;-4.33;64.59
59315;BME280;46521;50.160;20.802;2023-02-10T01:38:53;101403.34;;;-4.30;64.21
59315;BME280;46521;50.160;20.802;2023-02-10T01:48:56;101379.13;;;-4.26;64.28
59315;BME280;46521;50.160;20.802;2023-02-10T01:58:58;101385.28;;;-4.32;64.29
59315;BME280;46521;50.160;20.802;2023-02-10T02:09:00;101386.41;;;-4.47;64.46
59315;BME280;46521;50.160;20.802;2023-02-10T02:19:39;101397.06;;;-4.62;64.74
59315;BME280;46521;50.160;20.802;2023-02-10T02:40:20;101397.05;;;-5.12;64.90
59315;BME280;46521;50.160;20.802;2023-02-10T02:50:44;101381.82;;;-5.28;65.31
59315;BME280;46521;50.160;20.802;2023-02-10T03:00:48;101398.11;;;-5.26;64.72
59315;BME280;46521;50.160;20.802;2023-02-10T03:10:50;101394.62;;;-5.21;64.89
59315;BME280;46521;50.160;20.802;2023-02-10T03:20:52;101398.83;;;-5.17;64.64
59315;BME280;46521;50.160;20.802;2023-02-10T03:30:54;101403.00;;;-5.09;64.98
59315;BME280;46521;50.160;20.802;2023-02-10T03:40:56;101402.95;;;-5.05;63.95
59315;BME280;46521;50.160;20.802;2023-02-10T03:51:03;101383.11;;;-5.02;64.08
59315;BME280;46521;50.160;20.802;2023-02-10T04:01:23;101390.00;;;-5.02;63.95
59315;BME280;46521;50.160;20.802;2023-02-10T04:11:24;101386.63;;;-5.06;64.71
59315;BME280;46521;50.160;20.802;2023-02-10T04:21:26;101397.03;;;-5.11;64.17
59315;BME280;46521;50.160;20.802;2023-02-10T04:31:27;101402.19;;;-5.11;64.19
59315;BME280;46521;50.160;20.802;2023-02-10T04:41:29;101407.47;;;-5.18;64.27
59315;BME280;46521;50.160;20.802;2023-02-10T04:51:30;101409.33;;;-5.27;64.33
59315;BME280;46521;50.160;20.802;2023-02-10T05:01:32;101418.02;;;-5.34;64.27
59315;BME280;46521;50.160;20.802;2023-02-10T05:11:34;101419.78;;;-5.36;64.56
59315;BME280;46521;50.160;20.802;2023-02-10T05:21:36;101437.85;;;-5.37;64.48
59315;BME280;46521;50.160;20.802;2023-02-10T05:31:37;101432.72;;;-5.39;64.61
59315;BME280;46521;50.160;20.802;2023-02-10T05:41:39;101440.50;;;-5.42;64.14
59315;BME280;46521;50.160;20.802;2023-02-10T05:51:41;101440.63;;;-5.51;63.83
59315;BME280;46521;50.160;20.802;2023-02-10T06:01:43;101447.38;;;-5.44;64.66
59315;BME280;46521;50.160;20.802;2023-02-10T06:11:44;101451.72;;;-5.46;64.67
59315;BME280;46521;50.160;20.802;2023-02-10T06:21:45;101438.91;;;-5.52;64.39
59315;BME280;46521;50.160;20.802;2023-02-10T06:31:47;101453.39;;;-5.42;64.19
59315;BME280;46521;50.160;20.802;2023-02-10T06:41:49;101440.96;;;-2.98;62.77
59315;BME280;46521;50.160;20.802;2023-02-10T06:51:50;101445.30;;;-0.35;59.96
59315;BME280;46521;50.160;20.802;2023-02-10T07:01:51;101438.09;;;2.67;57.98
59315;BME280;46521;50.160;20.802;2023-02-10T07:11:54;101440.38;;;3.96;58.48
59315;BME280;46521;50.160;20.802;2023-02-10T07:21:56;101455.44;;;2.87;60.89
59315;BME280;46521;50.160;20.802;2023-02-10T07:31:57;101463.18;;;1.34;60.70
59315;BME280;46521;50.160;20.802;2023-02-10T07:41:59;101462.02;;;0.76;60.29
59315;BME280;46521;50.160;20.802;2023-02-10T07:52:00;101468.05;;;0.54;60.46
59315;BME280;46521;50.160;20.802;2023-02-10T08:02:02;101478.30;;;0.81;60.15
59315;BME280;46521;50.160;20.802;2023-02-10T08:12:03;101484.73;;;0.95;59.97
59315;BME280;46521;50.160;20.802;2023-02-10T08:22:06;101497.77;;;0.95;59.72
59315;BME280;46521;50.160;20.802;2023-02-10T08:32:08;101492.44;;;0.98;60.19
59315;BME280;46521;50.160;20.802;2023-02-10T08:42:10;101486.30;;;0.77;59.39
59315;BME280;46521;50.160;20.802;2023-02-10T09:04:49;101498.83;;;1.11;59.28
59315;BME280;46521;50.160;20.802;2023-02-10T09:14:51;101499.34;;;1.21;59.34
59315;BME280;46521;50.160;20.802;2023-02-10T09:24:52;101489.71;;;1.01;59.19
59315;BME280;46521;50.160;20.802;2023-02-10T09:34:55;101483.63;;;1.00;59.05
59315;BME280;46521;50.160;20.802;2023-02-10T09:45:03;101474.36;;;1.15;58.77
59315;BME280;46521;50.160;20.802;2023-02-10T09:55:23;101464.40;;;1.66;59.20
59315;BME280;46521;50.160;20.802;2023-02-10T10:05:38;101474.88;;;2.06;59.24
59315;BME280;46521;50.160;20.802;2023-02-10T10:15:46;101473.64;;;2.52;58.64
59315;BME280;46521;50.160;20.802;2023-02-10T10:36:17;101443.70;;;2.41;57.13
59315;BME280;46521;50.160;20.802;2023-02-10T10:46:28;101435.52;;;2.29;58.37
59315;BME280;46521;50.160;20.802;2023-02-10T10:56:47;101421.22;;;2.75;57.47
59315;BME280;46521;50.160;20.802;2023-02-10T11:06:54;101418.60;;;2.75;57.62
59315;BME280;46521;50.160;20.802;2023-02-10T11:16:58;101405.89;;;2.30;56.87
59315;BME280;46521;50.160;20.802;2023-02-10T11:27:14;101422.41;;;2.67;57.77
59315;BME280;46521;50.160;20.802;2023-02-10T11:37:36;101427.67;;;2.48;57.27
59315;BME280;46521;50.160;20.802;2023-02-10T11:47:38;101403.11;;;2.33;57.51
59315;BME280;46521;50.160;20.802;2023-02-10T11:57:52;101412.55;;;2.55;57.35
59315;BME280;46521;50.160;20.802;2023-02-10T12:08:24;101412.08;;;2.47;58.32
59315;BME280;46521;50.160;20.802;2023-02-10T12:59:33;101407.16;;;2.03;58.29
59315;BME280;46521;50.160;20.802;2023-02-10T13:09:43;101406.74;;;2.12;58.54
59315;BME280;46521;50.160;20.802;2023-02-10T13:20:03;101415.54;;;1.90;58.28
59315;BME280;46521;50.160;20.802;2023-02-10T13:40:26;101414.84;;;1.87;58.62
59315;BME280;46521;50.160;20.802;2023-02-10T13:50:31;101423.97;;;1.76;58.47
59315;BME280;46521;50.160;20.802;2023-02-10T14:00:48;101432.97;;;1.69;58.73
59315;BME280;46521;50.160;20.802;2023-02-10T14:21:12;101458.23;;;1.48;58.82
59315;BME280;46521;50.160;20.802;2023-02-10T14:31:23;101456.20;;;1.34;59.49
59315;BME280;46521;50.160;20.802;2023-02-10T14:41:32;101460.18;;;1.22;59.73
59315;BME280;46521;50.160;20.802;2023-02-10T14:51:39;101470.05;;;1.14;59.90
59315;BME280;46521;50.160;20.802;2023-02-10T15:01:41;101467.16;;;1.00;60.22
59315;BME280;46521;50.160;20.802;2023-02-10T15:11:54;101476.27;;;0.89;60.74
59315;BME280;46521;50.160;20.802;2023-02-10T15:32:37;101483.44;;;0.61;61.76
59315;BME280;46521;50.160;20.802;2023-02-10T15:42:39;101489.23;;;0.45;62.13
59315;BME280;46521;50.160;20.802;2023-02-10T15:52:44;101505.08;;;0.39;62.34
59315;BME280;46521;50.160;20.802;2023-02-10T16:02:46;101502.78;;;0.31;62.51
59315;BME280;46521;50.160;20.802;2023-02-10T16:12:49;101526.38;;;0.27;63.20
59315;BME280;46521;50.160;20.802;2023-02-10T16:22:51;101526.27;;;0.30;62.66
59315;BME280;46521;50.160;20.802;2023-02-10T16:32:54;101512.21;;;0.34;63.11
59315;BME280;46521;50.160;20.802;2023-02-10T16:42:56;101517.42;;;0.34;63.43
59315;BME280;46521;50.160;20.802;2023-02-10T16:52:58;101531.63;;;0.25;63.56
59315;BME280;46521;50.160;20.802;2023-02-10T17:03:00;101535.29;;;0.20;63.56
59315;BME280;46521;50.160;20.802;2023-02-10T17:13:02;101537.11;;;0.17;63.86
59315;BME280;46521;50.160;20.802;2023-02-10T17:23:05;101531.96;;;0.16;64.14
59315;BME280;46521;50.160;20.802;2023-02-10T17:33:24;101528.33;;;0.20;64.07
59315;BME280;46521;50.160;20.802;2023-02-10T17:43:26;101522.39;;;0.16;64.36
59315;BME280;46521;50.160;20.802;2023-02-10T17:53:28;101516.41;;;0.14;64.49
59315;BME280;46521;50.160;20.802;2023-02-10T18:03:30;101528.48;;;0.15;64.54
59315;BME280;46521;50.160;20.802;2023-02-10T18:13:31;101519.90;;;0.13;64.84
59315;BME280;46521;50.160;20.802;2023-02-10T18:23:33;101512.14;;;0.12;64.97
59315;BME280;46521;50.160;20.802;2023-02-10T18:33:35;101507.78;;;0.12;65.33
59315;BME280;46521;50.160;20.802;2023-02-10T18:43:37;101505.18;;;0.12;65.07
59315;BME280;46521;50.160;20.802;2023-02-10T18:53:39;101507.78;;;0.12;65.37
59315;BME280;46521;50.160;20.802;2023-02-10T19:03:41;101507.78;;;0.12;65.55
59315;BME280;46521;50.160;20.802;2023-02-10T19:13:42;101500.91;;;0.11;65.51
59315;BME280;46521;50.160;20.802;2023-02-10T19:23:44;101502.63;;;0.11;65.76
59315;BME280;46521;50.160;20.802;2023-02-10T19:33:46;101507.84;;;0.11;65.92
59315;BME280;46521;50.160;20.802;2023-02-10T19:43:49;101514.91;;;0.07;66.17
59315;BME280;46521;50.160;20.802;2023-02-10T19:53:52;101515.97;;;0.02;66.33
59315;BME280;46521;50.160;20.802;2023-02-10T20:03:55;101515.13;;;0.01;66.60
59315;BME280;46521;50.160;20.802;2023-02-10T20:13:56;101497.70;;;0.03;66.64
59315;BME280;46521;50.160;20.802;2023-02-10T20:23:58;101496.02;;;0.02;66.68
59315;BME280;46521;50.160;20.802;2023-02-10T20:34:00;101488.22;;;0.02;66.70
59315;BME280;46521;50.160;20.802;2023-02-10T20:44:02;101467.36;;;0.04;66.60
59315;BME280;46521;50.160;20.802;2023-02-10T20:54:04;101488.11;;;0.05;66.78
59315;BME280;46521;50.160;20.802;2023-02-10T21:04:05;101462.88;;;0.07;66.68
59315;BME280;46521;50.160;20.802;2023-02-10T21:14:08;101464.59;;;0.08;66.88
59315;BME280;46521;50.160;20.802;2023-02-10T21:24:10;101461.06;;;0.09;67.06
59315;BME280;46521;50.160;20.802;2023-02-10T21:34:14;101460.84;;;0.15;67.30
59315;BME280;46521;50.160;20.802;2023-02-10T21:44:18;101452.36;;;0.10;67.09
59315;BME280;46521;50.160;20.802;2023-02-10T21:54:22;101448.98;;;0.08;67.11
59315;BME280;46521;50.160;20.802;2023-02-10T22:04:24;101437.09;;;0.01;67.05
59315;BME280;46521;50.160;20.802;2023-02-10T22:14:25;101445.00;;;-0.02;67.28
59315;BME280;46521;50.160;20.802;2023-02-10T22:24:27;101443.33;;;-0.03;67.53
59315;BME280;46521;50.160;20.802;2023-02-10T22:34:30;101435.63;;;-0.06;67.58
59315;BME280;46521;50.160;20.802;2023-02-10T22:44:32;101398.30;;;-0.05;67.61
59315;BME280;46521;50.160;20.802;2023-02-10T22:54:33;101413.12;;;-0.07;67.74
59315;BME280;46521;50.160;20.802;2023-02-10T23:04:35;101392.14;;;-0.03;67.96
59315;BME280;46521;50.160;20.802;2023-02-10T23:14:36;101379.74;;;0.04;67.88
59315;BME280;46521;50.160;20.802;2023-02-10T23:24:38;101377.81;;;0.09;67.91
59315;BME280;46521;50.160;20.802;2023-02-10T23:34:40;101378.84;;;0.05;68.14
59315;BME280;46521;50.160;20.802;2023-02-10T23:44:41;101357.86;;;0.10;68.11
